sensor_id;sensor_type;location;lat;lon;timestamp;P1;durP1;ratioP1;P2;durP2;ratioP2
64938;SDS011;51453;47.738;7.420;2022-10-16T00:00:56;11.75;;;2.28;;
64938;SDS011;51453;47.738;7.420;2022-10-16T00:03:22;5.18;;;2.20;;
64938;SDS011;51453;47.738;7.420;2022-10-16T00:05:48;4.78;;;2.30;;
64938;SDS011;51453;47.738;7.420;2022-10-16T00:08:13;4.13;;;2.10;;
64938;SDS011;51453;47.738;7.420;2022-10-16T00:10:39;2.75;;;2.22;;
64938;SDS011;51453;47.738;7.420;2022-10-16T00:13:05;5.68;;;2.60;;
64938;SDS011;51453;47.738;7.420;2022-10-16T00:15:33;5.22;;;2.88;;
64938;SDS011;51453;47.738;7.420;2022-10-16T00:18:01;7.50;;;2.65;;
64938;SDS011;51453;47.738;7.420;2022-10-16T00:20:28;6.20;;;2.75;;
64938;SDS011;51453;47.738;7.420;2022-10-16T00:22:56;9.55;;;2.78;;
64938;SDS011;51453;47.738;7.420;2022-10-16T00:25:22;3.47;;;2.65;;
64938;SDS011;51453;47.738;7.420;2022-10-16T00:27:48;6.55;;;2.50;;
64938;SDS011;51453;47.738;7.420;2022-10-16T00:30:14;6.38;;;2.70;;
64938;SDS011;51453;47.738;7.420;2022-10-16T00:32:40;4.72;;;2.20;;
64938;SDS011;51453;47.738;7.420;2022-10-16T00:35:05;7.70;;;2.90;;
64938;SDS011;51453;47.738;7.420;2022-10-16T00:37:31;9.35;;;2.70;;
64938;SDS011;51453;47.738;7.420;2022-10-16T00:39:57;5.93;;;2.63;;
64938;SDS011;51453;47.738;7.420;2022-10-16T00:42:23;8.77;;;2.42;;
64938;SDS011;51453;47.738;7.420;2022-10-16T00:47:21;3.30;;;2.65;;
64938;SDS011;51453;47.738;7.420;2022-10-16T00:52:56;6.38;;;2.70;;
64938;SDS011;51453;47.738;7.420;2022-10-16T00:55:25;7.78;;;2.55;;
64938;SDS011;51453;47.738;7.420;2022-10-16T00:57:53;4.90;;;2.42;;
64938;SDS011;51453;47.738;7.420;2022-10-16T01:00:21;5.38;;;2.42;;
64938;SDS011;51453;47.738;7.420;2022-10-16T01:02:52;3.38;;;2.40;;
64938;SDS011;51453;47.738;7.420;2022-10-16T01:07:53;4.25;;;2.50;;
64938;SDS011;51453;47.738;7.420;2022-10-16T01:26:04;6.72;;;2.50;;
64938;SDS011;51453;47.738;7.420;2022-10-16T01:28:46;5.13;;;2.38;;
64938;SDS011;51453;47.738;7.420;2022-10-16T01:31:29;3.83;;;2.13;;
64938;SDS011;51453;47.738;7.420;2022-10-16T01:34:18;4.43;;;2.70;;
64938;SDS011;51453;47.738;7.420;2022-10-16T01:36:50;4.88;;;2.60;;
64938;SDS011;51453;47.738;7.420;2022-10-16T01:39:21;10.23;;;2.55;;
64938;SDS011;51453;47.738;7.420;2022-10-16T01:41:51;5.47;;;2.70;;
64938;SDS011;51453;47.738;7.420;2022-10-16T01:44:25;6.35;;;2.53;;
64938;SDS011;51453;47.738;7.420;2022-10-16T01:49:22;9.00;;;2.70;;
64938;SDS011;51453;47.738;7.420;2022-10-16T01:51:52;3.00;;;2.35;;
64938;SDS011;51453;47.738;7.420;2022-10-16T01:54:21;9.43;;;2.40;;
64938;SDS011;51453;47.738;7.420;2022-10-16T01:56:50;7.43;;;2.70;;
64938;SDS011;51453;47.738;7.420;2022-10-16T01:59:18;4.13;;;2.63;;
64938;SDS011;51453;47.738;7.420;2022-10-16T02:01:47;5.82;;;2.67;;
64938;SDS011;51453;47.738;7.420;2022-10-16T02:06:45;3.22;;;2.00;;
64938;SDS011;51453;47.738;7.420;2022-10-16T02:09:11;6.75;;;2.40;;
64938;SDS011;51453;47.738;7.420;2022-10-16T02:11:36;10.52;;;2.90;;
64938;SDS011;51453;47.738;7.420;2022-10-16T02:14:03;3.70;;;2.55;;
64938;SDS011;51453;47.738;7.420;2022-10-16T02:16:38;7.47;;;2.22;;
64938;SDS011;51453;47.738;7.420;2022-10-16T02:19:06;15.27;;;2.55;;
64938;SDS011;51453;47.738;7.420;2022-10-16T02:21:37;5.88;;;2.47;;
64938;SDS011;51453;47.738;7.420;2022-10-16T02:26:45;8.88;;;2.17;;
64938;SDS011;51453;47.738;7.420;2022-10-16T02:29:33;5.75;;;2.30;;
64938;SDS011;51453;47.738;7.420;2022-10-16T02:32:04;3.72;;;2.35;;
64938;SDS011;51453;47.738;7.420;2022-10-16T02:34:32;5.57;;;2.42;;
64938;SDS011;51453;47.738;7.420;2022-10-16T02:37:00;8.60;;;2.17;;
64938;SDS011;51453;47.738;7.420;2022-10-16T02:39:28;7.82;;;2.40;;
64938;SDS011;51453;47.738;7.420;2022-10-16T02:41:54;5.55;;;2.40;;
64938;SDS011;51453;47.738;7.420;2022-10-16T02:44:20;5.65;;;2.47;;
64938;SDS011;51453;47.738;7.420;2022-10-16T02:46:46;5.07;;;2.47;;
64938;SDS011;51453;47.738;7.420;2022-10-16T02:49:11;9.65;;;3.70;;
64938;SDS011;51453;47.738;7.420;2022-10-16T02:51:37;15.00;;;2.70;;
64938;SDS011;51453;47.738;7.420;2022-10-16T02:54:03;8.07;;;2.60;;
64938;SDS011;51453;47.738;7.420;2022-10-16T02:56:28;8.10;;;2.40;;
64938;SDS011;51453;47.738;7.420;2022-10-16T02:58:55;8.00;;;2.70;;
64938;SDS011;51453;47.738;7.420;2022-10-16T03:01:20;8.82;;;2.55;;
64938;SDS011;51453;47.738;7.420;2022-10-16T03:03:46;9.75;;;2.67;;
64938;SDS011;51453;47.738;7.420;2022-10-16T03:06:12;6.80;;;2.30;;
64938;SDS011;51453;47.738;7.420;2022-10-16T03:08:38;7.47;;;2.40;;
64938;SDS011;51453;47.738;7.420;2022-10-16T03:11:04;3.65;;;2.40;;
64938;SDS011;51453;47.738;7.420;2022-10-16T03:13:29;5.32;;;2.30;;
64938;SDS011;51453;47.738;7.420;2022-10-16T03:15:55;4.00;;;2.30;;
64938;SDS011;51453;47.738;7.420;2022-10-16T03:18:21;2.75;;;2.28;;
64938;SDS011;51453;47.738;7.420;2022-10-16T03:20:46;5.45;;;2.30;;
64938;SDS011;51453;47.738;7.420;2022-10-16T03:23:12;5.38;;;2.38;;
64938;SDS011;51453;47.738;7.420;2022-10-16T03:25:37;3.95;;;2.22;;
64938;SDS011;51453;47.738;7.420;2022-10-16T03:28:03;5.60;;;2.38;;
64938;SDS011;51453;47.738;7.420;2022-10-16T03:30:29;4.95;;;2.40;;
64938;SDS011;51453;47.738;7.420;2022-10-16T03:32:55;5.78;;;2.28;;
64938;SDS011;51453;47.738;7.420;2022-10-16T03:35:21;7.93;;;2.30;;
64938;SDS011;51453;47.738;7.420;2022-10-16T03:37:48;3.85;;;2.58;;
64938;SDS011;51453;47.738;7.420;2022-10-16T03:40:14;15.38;;;2.85;;
64938;SDS011;51453;47.738;7.420;2022-10-16T03:42:41;4.57;;;2.80;;
64938;SDS011;51453;47.738;7.420;2022-10-16T03:45:07;6.45;;;2.20;;
64938;SDS011;51453;47.738;7.420;2022-10-16T03:47:34;4.63;;;2.17;;
64938;SDS011;51453;47.738;7.420;2022-10-16T03:49:59;8.15;;;2.58;;
64938;SDS011;51453;47.738;7.420;2022-10-16T03:52:25;10.20;;;2.53;;
64938;SDS011;51453;47.738;7.420;2022-10-16T03:54:51;5.80;;;2.50;;
64938;SDS011;51453;47.738;7.420;2022-10-16T03:57:17;12.50;;;2.55;;
64938;SDS011;51453;47.738;7.420;2022-10-16T03:59:43;3.88;;;2.50;;
64938;SDS011;51453;47.738;7.420;2022-10-16T04:02:08;4.45;;;2.53;;
64938;SDS011;51453;47.738;7.420;2022-10-16T04:04:34;4.45;;;2.40;;
64938;SDS011;51453;47.738;7.420;2022-10-16T04:07:00;4.70;;;2.20;;
64938;SDS011;51453;47.738;7.420;2022-10-16T04:09:26;4.60;;;2.30;;
64938;SDS011;51453;47.738;7.420;2022-10-16T04:11:52;5.15;;;2.15;;
64938;SDS011;51453;47.738;7.420;2022-10-16T04:14:17;8.35;;;2.50;;
64938;SDS011;51453;47.738;7.420;2022-10-16T04:16:43;6.70;;;2.50;;
64938;SDS011;51453;47.738;7.420;2022-10-16T04:19:09;4.55;;;3.03;;
64938;SDS011;51453;47.738;7.420;2022-10-16T04:21:36;3.45;;;2.10;;
64938;SDS011;51453;47.738;7.420;2022-10-16T04:24:02;8.93;;;2.63;;
64938;SDS011;51453;47.738;7.420;2022-10-16T04:26:28;5.75;;;2.40;;
64938;SDS011;51453;47.738;7.420;2022-10-16T04:28:54;6.05;;;2.42;;
64938;SDS011;51453;47.738;7.420;2022-10-16T04:31:20;4.53;;;2.40;;
64938;SDS011;51453;47.738;7.420;2022-10-16T04:33:46;8.57;;;2.70;;
64938;SDS011;51453;47.738;7.420;2022-10-16T04:36:11;5.63;;;2.58;;
64938;SDS011;51453;47.738;7.420;2022-10-16T04:38:38;6.25;;;2.85;;
64938;SDS011;51453;47.738;7.420;2022-10-16T04:41:05;4.35;;;2.75;;
64938;SDS011;51453;47.738;7.420;2022-10-16T04:43:31;5.22;;;2.50;;
64938;SDS011;51453;47.738;7.420;2022-10-16T04:45:57;5.88;;;2.80;;
64938;SDS011;51453;47.738;7.420;2022-10-16T04:48:23;6.80;;;2.65;;
64938;SDS011;51453;47.738;7.420;2022-10-16T04:50:49;7.20;;;2.78;;
64938;SDS011;51453;47.738;7.420;2022-10-16T04:53:15;4.75;;;2.60;;
64938;SDS011;51453;47.738;7.420;2022-10-16T04:55:41;6.53;;;2.72;;
64938;SDS011;51453;47.738;7.420;2022-10-16T04:58:07;7.22;;;2.53;;
64938;SDS011;51453;47.738;7.420;2022-10-16T05:00:33;4.85;;;2.80;;
64938;SDS011;51453;47.738;7.420;2022-10-16T05:02:59;10.13;;;2.67;;
64938;SDS011;51453;47.738;7.420;2022-10-16T05:05:25;7.32;;;2.40;;
64938;SDS011;51453;47.738;7.420;2022-10-16T05:07:51;4.50;;;2.63;;
64938;SDS011;51453;47.738;7.420;2022-10-16T05:10:17;3.45;;;2.30;;
64938;SDS011;51453;47.738;7.420;2022-10-16T05:12:43;5.93;;;2.70;;
64938;SDS011;51453;47.738;7.420;2022-10-16T05:15:09;4.10;;;2.22;;
64938;SDS011;51453;47.738;7.420;2022-10-16T05:17:35;5.55;;;2.10;;
64938;SDS011;51453;47.738;7.420;2022-10-16T05:20:00;6.80;;;2.80;;
64938;SDS011;51453;47.738;7.420;2022-10-16T05:22:26;3.15;;;2.17;;
64938;SDS011;51453;47.738;7.420;2022-10-16T05:24:52;5.93;;;2.20;;
64938;SDS011;51453;47.738;7.420;2022-10-16T05:27:18;9.35;;;2.45;;
64938;SDS011;51453;47.738;7.420;2022-10-16T05:29:48;7.63;;;2.20;;
64938;SDS011;51453;47.738;7.420;2022-10-16T05:32:17;5.50;;;2.20;;
64938;SDS011;51453;47.738;7.420;2022-10-16T05:34:43;4.93;;;1.88;;
64938;SDS011;51453;47.738;7.420;2022-10-16T05:37:10;3.50;;;2.38;;
64938;SDS011;51453;47.738;7.420;2022-10-16T05:39:36;4.68;;;2.20;;
64938;SDS011;51453;47.738;7.420;2022-10-16T05:42:03;3.40;;;1.85;;
64938;SDS011;51453;47.738;7.420;2022-10-16T05:44:29;6.35;;;2.22;;
64938;SDS011;51453;47.738;7.420;2022-10-16T05:46:55;7.88;;;2.50;;
64938;SDS011;51453;47.738;7.420;2022-10-16T05:49:20;9.32;;;2.40;;
64938;SDS011;51453;47.738;7.420;2022-10-16T05:51:46;8.45;;;2.75;;
64938;SDS011;51453;47.738;7.420;2022-10-16T05:54:12;6.97;;;2.08;;
64938;SDS011;51453;47.738;7.420;2022-10-16T05:56:38;3.53;;;2.45;;
64938;SDS011;51453;47.738;7.420;2022-10-16T05:59:04;5.80;;;2.42;;
64938;SDS011;51453;47.738;7.420;2022-10-16T06:01:30;8.13;;;2.20;;
64938;SDS011;51453;47.738;7.420;2022-10-16T06:03:56;5.00;;;2.15;;
64938;SDS011;51453;47.738;7.420;2022-10-16T06:06:23;2.42;;;2.03;;
64938;SDS011;51453;47.738;7.420;2022-10-16T06:08:51;2.28;;;1.98;;
64938;SDS011;51453;47.738;7.420;2022-10-16T06:11:23;6.43;;;2.10;;
64938;SDS011;51453;47.738;7.420;2022-10-16T06:13:55;6.22;;;1.80;;
64938;SDS011;51453;47.738;7.420;2022-10-16T06:16:23;6.75;;;2.22;;
64938;SDS011;51453;47.738;7.420;2022-10-16T06:18:50;3.67;;;2.00;;
64938;SDS011;51453;47.738;7.420;2022-10-16T06:21:18;7.65;;;2.30;;
64938;SDS011;51453;47.738;7.420;2022-10-16T06:23:45;6.22;;;1.98;;
64938;SDS011;51453;47.738;7.420;2022-10-16T06:26:12;4.28;;;2.20;;
64938;SDS011;51453;47.738;7.420;2022-10-16T06:28:39;12.00;;;2.10;;
64938;SDS011;51453;47.738;7.420;2022-10-16T06:31:06;3.67;;;1.60;;
64938;SDS011;51453;47.738;7.420;2022-10-16T06:33:33;4.43;;;1.55;;
64938;SDS011;51453;47.738;7.420;2022-10-16T06:36:03;3.03;;;1.50;;
64938;SDS011;51453;47.738;7.420;2022-10-16T06:38:30;4.47;;;1.75;;
64938;SDS011;51453;47.738;7.420;2022-10-16T06:40:56;5.32;;;1.70;;
64938;SDS011;51453;47.738;7.420;2022-10-16T06:43:23;2.40;;;1.63;;
64938;SDS011;51453;47.738;7.420;2022-10-16T06:45:52;5.28;;;1.77;;
64938;SDS011;51453;47.738;7.420;2022-10-16T06:48:19;3.67;;;1.70;;
64938;SDS011;51453;47.738;7.420;2022-10-16T06:50:56;6.35;;;1.58;;
64938;SDS011;51453;47.738;7.420;2022-10-16T06:53:30;4.57;;;1.88;;
64938;SDS011;51453;47.738;7.420;2022-10-16T06:55:57;3.80;;;1.55;;
64938;SDS011;51453;47.738;7.420;2022-10-16T06:58:31;2.10;;;1.40;;
64938;SDS011;51453;47.738;7.420;2022-10-16T07:00:56;9.27;;;1.80;;
64938;SDS011;51453;47.738;7.420;2022-10-16T07:03:22;7.18;;;1.40;;
64938;SDS011;51453;47.738;7.420;2022-10-16T07:05:48;8.30;;;1.60;;
64938;SDS011;51453;47.738;7.420;2022-10-16T07:08:13;2.13;;;1.60;;
64938;SDS011;51453;47.738;7.420;2022-10-16T07:10:39;1.52;;;1.30;;
64938;SDS011;51453;47.738;7.420;2022-10-16T07:13:05;4.20;;;1.40;;
64938;SDS011;51453;47.738;7.420;2022-10-16T07:15:32;2.85;;;1.55;;
64938;SDS011;51453;47.738;7.420;2022-10-16T07:17:58;1.35;;;1.27;;
64938;SDS011;51453;47.738;7.420;2022-10-16T07:20:24;3.92;;;1.42;;
64938;SDS011;51453;47.738;7.420;2022-10-16T07:22:50;3.92;;;1.63;;
64938;SDS011;51453;47.738;7.420;2022-10-16T07:25:17;6.63;;;1.33;;
64938;SDS011;51453;47.738;7.420;2022-10-16T07:27:43;3.80;;;1.50;;
64938;SDS011;51453;47.738;7.420;2022-10-16T07:30:08;2.15;;;1.58;;
64938;SDS011;51453;47.738;7.420;2022-10-16T07:32:34;5.47;;;1.35;;
64938;SDS011;51453;47.738;7.420;2022-10-16T07:35:00;4.43;;;1.75;;
64938;SDS011;51453;47.738;7.420;2022-10-16T07:37:26;7.45;;;1.60;;
64938;SDS011;51453;47.738;7.420;2022-10-16T07:39:51;1.90;;;1.63;;
64938;SDS011;51453;47.738;7.420;2022-10-16T07:42:17;3.15;;;1.58;;
64938;SDS011;51453;47.738;7.420;2022-10-16T07:44:43;4.03;;;1.35;;
64938;SDS011;51453;47.738;7.420;2022-10-16T07:47:08;5.35;;;1.50;;
64938;SDS011;51453;47.738;7.420;2022-10-16T07:49:34;4.25;;;1.55;;
64938;SDS011;51453;47.738;7.420;2022-10-16T07:52:00;6.03;;;1.67;;
64938;SDS011;51453;47.738;7.420;2022-10-16T07:54:25;2.88;;;1.42;;
64938;SDS011;51453;47.738;7.420;2022-10-16T07:56:51;4.13;;;1.60;;
64938;SDS011;51453;47.738;7.420;2022-10-16T07:59:17;1.55;;;1.38;;
64938;SDS011;51453;47.738;7.420;2022-10-16T08:01:43;5.45;;;1.50;;
64938;SDS011;51453;47.738;7.420;2022-10-16T08:04:09;4.60;;;1.52;;
64938;SDS011;51453;47.738;7.420;2022-10-16T08:06:38;4.10;;;1.52;;
64938;SDS011;51453;47.738;7.420;2022-10-16T08:09:05;6.93;;;1.58;;
64938;SDS011;51453;47.738;7.420;2022-10-16T08:11:32;5.20;;;1.73;;
64938;SDS011;51453;47.738;7.420;2022-10-16T08:13:58;6.82;;;1.42;;
64938;SDS011;51453;47.738;7.420;2022-10-16T08:16:23;4.97;;;1.70;;
64938;SDS011;51453;47.738;7.420;2022-10-16T08:18:49;7.25;;;1.77;;
64938;SDS011;51453;47.738;7.420;2022-10-16T08:21:17;3.55;;;1.42;;
64938;SDS011;51453;47.738;7.420;2022-10-16T08:23:43;3.00;;;1.50;;
64938;SDS011;51453;47.738;7.420;2022-10-16T08:26:09;7.90;;;1.63;;
64938;SDS011;51453;47.738;7.420;2022-10-16T08:28:35;6.45;;;1.40;;
64938;SDS011;51453;47.738;7.420;2022-10-16T08:31:05;4.45;;;1.63;;
64938;SDS011;51453;47.738;7.420;2022-10-16T08:33:35;5.65;;;1.50;;
64938;SDS011;51453;47.738;7.420;2022-10-16T08:36:02;4.18;;;1.15;;
64938;SDS011;51453;47.738;7.420;2022-10-16T08:38:29;6.35;;;1.90;;
64938;SDS011;51453;47.738;7.420;2022-10-16T08:40:56;4.15;;;1.73;;
64938;SDS011;51453;47.738;7.420;2022-10-16T08:49:00;5.00;;;1.35;;
64938;SDS011;51453;47.738;7.420;2022-10-16T08:51:31;3.13;;;1.17;;
64938;SDS011;51453;47.738;7.420;2022-10-16T08:54:03;4.63;;;1.40;;
64938;SDS011;51453;47.738;7.420;2022-10-16T08:56:31;7.88;;;1.52;;
64938;SDS011;51453;47.738;7.420;2022-10-16T08:58:58;3.53;;;1.30;;
64938;SDS011;51453;47.738;7.420;2022-10-16T09:01:28;3.38;;;1.33;;
64938;SDS011;51453;47.738;7.420;2022-10-16T09:12:08;4.13;;;1.13;;
64938;SDS011;51453;47.738;7.420;2022-10-16T09:14:40;4.35;;;1.50;;
64938;SDS011;51453;47.738;7.420;2022-10-16T09:19:56;5.40;;;1.38;;
64938;SDS011;51453;47.738;7.420;2022-10-16T09:22:30;2.35;;;1.30;;
64938;SDS011;51453;47.738;7.420;2022-10-16T09:24:59;6.47;;;1.50;;
64938;SDS011;51453;47.738;7.420;2022-10-16T09:27:35;3.72;;;1.60;;
64938;SDS011;51453;47.738;7.420;2022-10-16T09:30:01;3.50;;;1.40;;
64938;SDS011;51453;47.738;7.420;2022-10-16T09:32:35;10.95;;;1.73;;
64938;SDS011;51453;47.738;7.420;2022-10-16T09:35:03;6.45;;;2.00;;
64938;SDS011;51453;47.738;7.420;2022-10-16T09:37:35;4.70;;;1.48;;
64938;SDS011;51453;47.738;7.420;2022-10-16T09:40:01;6.28;;;1.92;;
64938;SDS011;51453;47.738;7.420;2022-10-16T09:42:31;2.78;;;1.20;;
64938;SDS011;51453;47.738;7.420;2022-10-16T09:45:00;4.63;;;1.40;;
64938;SDS011;51453;47.738;7.420;2022-10-16T09:47:27;1.45;;;0.98;;
64938;SDS011;51453;47.738;7.420;2022-10-16T09:50:19;5.63;;;1.70;;
64938;SDS011;51453;47.738;7.420;2022-10-16T09:53:12;2.08;;;1.38;;
64938;SDS011;51453;47.738;7.420;2022-10-16T09:55:51;2.97;;;1.20;;
64938;SDS011;51453;47.738;7.420;2022-10-16T09:58:20;3.83;;;1.33;;
64938;SDS011;51453;47.738;7.420;2022-10-16T10:00:51;5.43;;;1.20;;
64938;SDS011;51453;47.738;7.420;2022-10-16T10:03:38;1.83;;;1.10;;
64938;SDS011;51453;47.738;7.420;2022-10-16T10:14:16;6.07;;;1.20;;
64938;SDS011;51453;47.738;7.420;2022-10-16T10:16:45;1.15;;;1.05;;
64938;SDS011;51453;47.738;7.420;2022-10-16T10:19:15;4.38;;;1.33;;
64938;SDS011;51453;47.738;7.420;2022-10-16T10:21:45;5.70;;;1.33;;
64938;SDS011;51453;47.738;7.420;2022-10-16T10:24:16;4.70;;;1.20;;
64938;SDS011;51453;47.738;7.420;2022-10-16T10:29:50;4.65;;;1.10;;
64938;SDS011;51453;47.738;7.420;2022-10-16T10:35:07;2.75;;;1.27;;
64938;SDS011;51453;47.738;7.420;2022-10-16T10:40:51;5.90;;;1.40;;
64938;SDS011;51453;47.738;7.420;2022-10-16T10:46:08;2.35;;;1.10;;
64938;SDS011;51453;47.738;7.420;2022-10-16T10:48:53;2.47;;;1.27;;
64938;SDS011;51453;47.738;7.420;2022-10-16T10:51:35;3.75;;;0.95;;
64938;SDS011;51453;47.738;7.420;2022-10-16T10:54:32;1.00;;;0.90;;
64938;SDS011;51453;47.738;7.420;2022-10-16T10:57:22;1.85;;;1.10;;
64938;SDS011;51453;47.738;7.420;2022-10-16T11:05:38;2.88;;;1.10;;
64938;SDS011;51453;47.738;7.420;2022-10-16T11:11:09;2.13;;;1.00;;
64938;SDS011;51453;47.738;7.420;2022-10-16T11:13:58;8.38;;;1.30;;
64938;SDS011;51453;47.738;7.420;2022-10-16T11:17:11;4.93;;;1.10;;
64938;SDS011;51453;47.738;7.420;2022-10-16T11:19:25;2.90;;;1.35;;
64938;SDS011;51453;47.738;7.420;2022-10-16T11:22:41;3.47;;;0.98;;
64938;SDS011;51453;47.738;7.420;2022-10-16T11:25:00;5.35;;;1.27;;
64938;SDS011;51453;47.738;7.420;2022-10-16T11:41:24;3.40;;;0.80;;
64938;SDS011;51453;47.738;7.420;2022-10-16T11:46:38;5.13;;;1.20;;
64938;SDS011;51453;47.738;7.420;2022-10-16T11:51:38;2.88;;;0.88;;
64938;SDS011;51453;47.738;7.420;2022-10-16T11:54:26;4.45;;;1.05;;
64938;SDS011;51453;47.738;7.420;2022-10-16T11:57:22;4.47;;;0.70;;
64938;SDS011;51453;47.738;7.420;2022-10-16T12:05:58;1.65;;;0.95;;
64938;SDS011;51453;47.738;7.420;2022-10-16T12:08:45;3.20;;;0.70;;
64938;SDS011;51453;47.738;7.420;2022-10-16T12:16:29;1.17;;;0.70;;
64938;SDS011;51453;47.738;7.420;2022-10-16T12:19:11;2.00;;;0.85;;
64938;SDS011;51453;47.738;7.420;2022-10-16T12:21:38;1.23;;;0.80;;
64938;SDS011;51453;47.738;7.420;2022-10-16T12:24:05;5.85;;;1.00;;
64938;SDS011;51453;47.738;7.420;2022-10-16T12:26:32;0.90;;;0.90;;
64938;SDS011;51453;47.738;7.420;2022-10-16T12:30:00;1.67;;;0.82;;
64938;SDS011;51453;47.738;7.420;2022-10-16T12:31:57;2.53;;;0.85;;
64938;SDS011;51453;47.738;7.420;2022-10-16T12:34:35;1.75;;;0.82;;
64938;SDS011;51453;47.738;7.420;2022-10-16T12:37:38;2.22;;;0.98;;
64938;SDS011;51453;47.738;7.420;2022-10-16T12:40:11;2.70;;;0.80;;
64938;SDS011;51453;47.738;7.420;2022-10-16T12:42:39;7.88;;;1.13;;
64938;SDS011;51453;47.738;7.420;2022-10-16T12:47:54;3.10;;;0.85;;
64938;SDS011;51453;47.738;7.420;2022-10-16T12:52:51;1.67;;;0.93;;
64938;SDS011;51453;47.738;7.420;2022-10-16T12:55:18;1.00;;;0.75;;
64938;SDS011;51453;47.738;7.420;2022-10-16T13:11:26;2.65;;;0.90;;
64938;SDS011;51453;47.738;7.420;2022-10-16T13:26:08;2.92;;;0.88;;
64938;SDS011;51453;47.738;7.420;2022-10-16T13:28:17;5.07;;;1.05;;
64938;SDS011;51453;47.738;7.420;2022-10-16T13:30:53;2.13;;;0.90;;
64938;SDS011;51453;47.738;7.420;2022-10-16T13:33:23;3.03;;;0.75;;
64938;SDS011;51453;47.738;7.420;2022-10-16T13:35:53;2.42;;;0.80;;
64938;SDS011;51453;47.738;7.420;2022-10-16T13:38:21;1.38;;;0.80;;
64938;SDS011;51453;47.738;7.420;2022-10-16T13:40:52;3.40;;;1.13;;
64938;SDS011;51453;47.738;7.420;2022-10-16T13:43:31;1.33;;;0.73;;
64938;SDS011;51453;47.738;7.420;2022-10-16T13:46:05;2.85;;;0.80;;
64938;SDS011;51453;47.738;7.420;2022-10-16T13:48:38;4.22;;;0.73;;
64938;SDS011;51453;47.738;7.420;2022-10-16T13:51:05;1.48;;;0.80;;
64938;SDS011;51453;47.738;7.420;2022-10-16T13:53:37;5.55;;;1.17;;
64938;SDS011;51453;47.738;7.420;2022-10-16T13:56:03;0.65;;;0.65;;
64938;SDS011;51453;47.738;7.420;2022-10-16T13:58:31;4.32;;;0.60;;
64938;SDS011;51453;47.738;7.420;2022-10-16T14:01:05;2.05;;;0.75;;
64938;SDS011;51453;47.738;7.420;2022-10-16T14:03:40;1.80;;;0.80;;
64938;SDS011;51453;47.738;7.420;2022-10-16T14:06:11;1.70;;;0.95;;
64938;SDS011;51453;47.738;7.420;2022-10-16T14:08:42;0.70;;;0.70;;
64938;SDS011;51453;47.738;7.420;2022-10-16T14:11:09;8.45;;;0.80;;
64938;SDS011;51453;47.738;7.420;2022-10-16T14:13:39;3.70;;;0.80;;
64938;SDS011;51453;47.738;7.420;2022-10-16T14:16:15;2.42;;;0.80;;
64938;SDS011;51453;47.738;7.420;2022-10-16T14:18:44;1.85;;;0.90;;
64938;SDS011;51453;47.738;7.420;2022-10-16T14:21:14;3.05;;;0.85;;
64938;SDS011;51453;47.738;7.420;2022-10-16T14:23:42;2.50;;;0.65;;
64938;SDS011;51453;47.738;7.420;2022-10-16T14:28:34;3.80;;;0.80;;
64938;SDS011;51453;47.738;7.420;2022-10-16T14:31:01;3.83;;;0.90;;
64938;SDS011;51453;47.738;7.420;2022-10-16T14:33:44;1.55;;;0.93;;
64938;SDS011;51453;47.738;7.420;2022-10-16T14:36:11;0.90;;;0.85;;
64938;SDS011;51453;47.738;7.420;2022-10-16T14:38:40;2.53;;;1.00;;
64938;SDS011;51453;47.738;7.420;2022-10-16T14:41:08;2.72;;;1.00;;
64938;SDS011;51453;47.738;7.420;2022-10-16T14:43:35;3.10;;;1.10;;
64938;SDS011;51453;47.738;7.420;2022-10-16T14:46:07;0.80;;;0.80;;
64938;SDS011;51453;47.738;7.420;2022-10-16T14:48:41;2.92;;;0.90;;
64938;SDS011;51453;47.738;7.420;2022-10-16T14:51:11;2.65;;;1.20;;
64938;SDS011;51453;47.738;7.420;2022-10-16T14:53:39;1.33;;;0.82;;
64938;SDS011;51453;47.738;7.420;2022-10-16T14:56:09;2.55;;;0.82;;
64938;SDS011;51453;47.738;7.420;2022-10-16T14:58:59;1.77;;;0.90;;
64938;SDS011;51453;47.738;7.420;2022-10-16T15:01:26;1.75;;;1.10;;
64938;SDS011;51453;47.738;7.420;2022-10-16T15:03:51;2.42;;;1.10;;
64938;SDS011;51453;47.738;7.420;2022-10-16T15:06:19;3.80;;;1.10;;
64938;SDS011;51453;47.738;7.420;2022-10-16T15:08:45;2.88;;;0.80;;
64938;SDS011;51453;47.738;7.420;2022-10-16T15:11:16;1.35;;;1.02;;
64938;SDS011;51453;47.738;7.420;2022-10-16T15:13:43;4.63;;;1.15;;
64938;SDS011;51453;47.738;7.420;2022-10-16T15:16:13;2.58;;;1.10;;
64938;SDS011;51453;47.738;7.420;2022-10-16T15:18:40;7.82;;;1.20;;
64938;SDS011;51453;47.738;7.420;2022-10-16T15:21:06;4.45;;;1.20;;
64938;SDS011;51453;47.738;7.420;2022-10-16T15:23:32;2.90;;;1.25;;
64938;SDS011;51453;47.738;7.420;2022-10-16T15:25:58;1.20;;;0.90;;
64938;SDS011;51453;47.738;7.420;2022-10-16T15:28:24;2.28;;;0.90;;
64938;SDS011;51453;47.738;7.420;2022-10-16T15:30:54;1.25;;;1.00;;
64938;SDS011;51453;47.738;7.420;2022-10-16T15:33:22;4.68;;;1.00;;
64938;SDS011;51453;47.738;7.420;2022-10-16T15:35:50;3.05;;;1.13;;
64938;SDS011;51453;47.738;7.420;2022-10-16T15:38:17;3.38;;;0.98;;
64938;SDS011;51453;47.738;7.420;2022-10-16T15:40:45;2.10;;;1.00;;
64938;SDS011;51453;47.738;7.420;2022-10-16T15:43:12;2.70;;;0.90;;
64938;SDS011;51453;47.738;7.420;2022-10-16T15:45:37;5.28;;;1.00;;
64938;SDS011;51453;47.738;7.420;2022-10-16T15:48:03;2.30;;;1.02;;
64938;SDS011;51453;47.738;7.420;2022-10-16T15:50:29;3.33;;;1.10;;
64938;SDS011;51453;47.738;7.420;2022-10-16T15:52:56;2.13;;;0.80;;
64938;SDS011;51453;47.738;7.420;2022-10-16T15:55:22;4.95;;;1.02;;
64938;SDS011;51453;47.738;7.420;2022-10-16T15:57:47;1.48;;;1.30;;
64938;SDS011;51453;47.738;7.420;2022-10-16T16:00:15;1.35;;;1.17;;
64938;SDS011;51453;47.738;7.420;2022-10-16T16:02:43;3.67;;;1.13;;
64938;SDS011;51453;47.738;7.420;2022-10-16T16:05:14;3.88;;;1.33;;
64938;SDS011;51453;47.738;7.420;2022-10-16T16:07:40;1.98;;;1.23;;
64938;SDS011;51453;47.738;7.420;2022-10-16T16:10:06;1.95;;;1.30;;
64938;SDS011;51453;47.738;7.420;2022-10-16T16:12:34;3.55;;;1.20;;
64938;SDS011;51453;47.738;7.420;2022-10-16T16:15:00;2.78;;;1.35;;
64938;SDS011;51453;47.738;7.420;2022-10-16T16:17:26;3.00;;;1.45;;
64938;SDS011;51453;47.738;7.420;2022-10-16T16:19:51;5.63;;;1.27;;
64938;SDS011;51453;47.738;7.420;2022-10-16T16:22:17;3.47;;;1.30;;
64938;SDS011;51453;47.738;7.420;2022-10-16T16:24:43;2.20;;;1.40;;
64938;SDS011;51453;47.738;7.420;2022-10-16T16:27:09;3.22;;;1.63;;
64938;SDS011;51453;47.738;7.420;2022-10-16T16:29:35;3.38;;;1.50;;
64938;SDS011;51453;47.738;7.420;2022-10-16T16:32:01;2.55;;;1.60;;
64938;SDS011;51453;47.738;7.420;2022-10-16T16:34:27;2.72;;;1.45;;
64938;SDS011;51453;47.738;7.420;2022-10-16T16:36:54;3.05;;;1.40;;
64938;SDS011;51453;47.738;7.420;2022-10-16T16:39:20;1.45;;;1.35;;
64938;SDS011;51453;47.738;7.420;2022-10-16T16:41:47;2.80;;;1.40;;
64938;SDS011;51453;47.738;7.420;2022-10-16T16:44:13;5.65;;;2.00;;
64938;SDS011;51453;47.738;7.420;2022-10-16T16:46:40;2.78;;;1.60;;
64938;SDS011;51453;47.738;7.420;2022-10-16T16:49:08;2.00;;;1.45;;
64938;SDS011;51453;47.738;7.420;2022-10-16T16:51:36;4.43;;;1.70;;
64938;SDS011;51453;47.738;7.420;2022-10-16T16:54:02;3.97;;;1.52;;
64938;SDS011;51453;47.738;7.420;2022-10-16T16:56:28;2.30;;;1.90;;
64938;SDS011;51453;47.738;7.420;2022-10-16T16:58:54;4.25;;;1.80;;
64938;SDS011;51453;47.738;7.420;2022-10-16T17:01:22;3.40;;;2.20;;
64938;SDS011;51453;47.738;7.420;2022-10-16T17:03:49;4.28;;;2.33;;
64938;SDS011;51453;47.738;7.420;2022-10-16T17:06:18;7.90;;;2.42;;
64938;SDS011;51453;47.738;7.420;2022-10-16T17:08:45;3.13;;;1.90;;
64938;SDS011;51453;47.738;7.420;2022-10-16T17:11:12;3.67;;;2.30;;
64938;SDS011;51453;47.738;7.420;2022-10-16T17:13:43;4.47;;;2.58;;
64938;SDS011;51453;47.738;7.420;2022-10-16T17:16:09;3.08;;;2.25;;
64938;SDS011;51453;47.738;7.420;2022-10-16T17:18:35;3.63;;;2.40;;